createdAt,value
2023-05-14T00:01:40.388Z,14.40
2023-05-14T00:04:07.269Z,14.40
2023-05-14T00:06:34.314Z,14.40
2023-05-14T00:09:01.162Z,14.40
2023-05-14T00:11:27.971Z,14.40
2023-05-14T00:13:54.786Z,14.30
2023-05-14T00:16:21.647Z,14.30
2023-05-14T00:18:48.591Z,14.30
2023-05-14T00:21:15.444Z,14.20
2023-05-14T00:23:42.456Z,14.20
2023-05-14T00:26:09.261Z,14.20
2023-05-14T00:28:38.359Z,14.20
2023-05-14T00:31:05.402Z,14.20
2023-05-14T00:33:32.653Z,14.30
2023-05-14T00:35:59.858Z,14.20
2023-05-14T00:38:28.400Z,14.20
2023-05-14T00:40:55.743Z,14.20
2023-05-14T00:43:23.140Z,14.10
2023-05-14T00:45:52.540Z,14.10
2023-05-14T00:48:21.475Z,14.10
2023-05-14T00:50:50.781Z,14.00
2023-05-14T00:53:20.024Z,13.90
2023-05-14T00:55:49.413Z,13.90
2023-05-14T00:58:17.652Z,13.90
2023-05-14T01:00:44.424Z,13.80
2023-05-14T01:03:11.688Z,13.80
2023-05-14T01:06:01.111Z,13.70
2023-05-14T01:08:59.122Z,13.70
2023-05-14T01:11:39.925Z,13.60
2023-05-14T01:14:34.028Z,13.50
2023-05-14T01:17:04.682Z,13.50
2023-05-14T01:19:42.547Z,13.50
2023-05-14T01:22:10.695Z,13.50
2023-05-14T01:24:38.044Z,13.40
2023-05-14T01:27:52.595Z,13.30
2023-05-14T01:30:35.689Z,13.30
2023-05-14T01:33:09.930Z,13.30
2023-05-14T01:35:37.643Z,13.30
2023-05-14T01:38:13.556Z,13.20
2023-05-14T01:40:41.807Z,13.20
2023-05-14T01:43:08.855Z,13.20
2023-05-14T01:45:37.435Z,13.10
2023-05-14T01:48:07.449Z,13.10
2023-05-14T01:50:34.498Z,13.10
2023-05-14T01:53:01.428Z,13.10
2023-05-14T01:55:28.445Z,13.10
2023-05-14T01:57:55.767Z,13.10
2023-05-14T02:00:26.019Z,13.10
2023-05-14T02:02:53.343Z,13.00
2023-05-14T02:05:21.030Z,13.10
2023-05-14T02:07:47.951Z,13.10
2023-05-14T02:10:16.065Z,13.00
2023-05-14T02:12:42.858Z,13.00
2023-05-14T02:15:11.059Z,12.90
2023-05-14T02:17:38.236Z,12.80
2023-05-14T02:20:06.038Z,12.80
2023-05-14T02:22:32.829Z,12.80
2023-05-14T02:24:59.832Z,12.90
2023-05-14T02:27:26.815Z,12.90
2023-05-14T02:29:53.726Z,12.80
2023-05-14T02:32:20.641Z,12.80
2023-05-14T02:34:47.419Z,12.80
2023-05-14T02:37:14.309Z,12.80
2023-05-14T02:39:41.169Z,12.80
2023-05-14T02:42:08.091Z,12.80
2023-05-14T02:44:35.059Z,12.80
2023-05-14T02:47:01.890Z,12.70
2023-05-14T02:49:28.761Z,12.70
2023-05-14T02:51:55.622Z,12.70
2023-05-14T02:54:22.481Z,12.70
2023-05-14T02:56:49.216Z,12.70
2023-05-14T02:59:16.019Z,12.70
2023-05-14T03:01:43.251Z,12.70
2023-05-14T03:04:10.717Z,12.70
2023-05-14T03:06:37.497Z,12.70
2023-05-14T03:09:04.297Z,12.60
2023-05-14T03:11:31.304Z,12.60
2023-05-14T03:13:58.141Z,12.60
2023-05-14T03:16:24.988Z,12.50
2023-05-14T03:18:51.891Z,12.50
2023-05-14T03:21:18.867Z,12.50
2023-05-14T03:23:45.738Z,12.50
2023-05-14T03:26:12.559Z,12.50
2023-05-14T03:28:40.782Z,12.50
2023-05-14T03:31:07.700Z,12.50
2023-05-14T03:33:34.570Z,12.50
2023-05-14T03:36:01.446Z,12.60
2023-05-14T03:38:28.283Z,12.50
2023-05-14T03:40:55.236Z,12.50
2023-05-14T03:43:22.044Z,12.50
2023-05-14T03:45:52.358Z,12.60
2023-05-14T03:48:20.188Z,12.60
2023-05-14T03:50:47.775Z,12.50
2023-05-14T03:53:14.548Z,12.50
2023-05-14T03:55:41.361Z,12.50
2023-05-14T03:58:14.097Z,12.50
2023-05-14T04:00:42.480Z,12.50
2023-05-14T04:03:11.097Z,12.50
2023-05-14T04:05:38.066Z,12.40
2023-05-14T04:08:05.783Z,12.50
2023-05-14T04:10:32.696Z,12.50
2023-05-14T04:13:00.493Z,12.50
2023-05-14T04:15:31.533Z,12.50
2023-05-14T04:17:58.408Z,12.50
2023-05-14T04:20:25.741Z,12.60
2023-05-14T04:22:53.908Z,12.60
2023-05-14T04:25:20.887Z,12.60
2023-05-14T04:27:47.896Z,12.60
2023-05-14T04:30:15.028Z,12.60
2023-05-14T04:32:41.866Z,12.70
2023-05-14T04:35:10.271Z,12.80
2023-05-14T04:37:37.281Z,12.70
2023-05-14T04:40:06.644Z,12.70
2023-05-14T04:42:34.026Z,12.70
2023-05-14T04:45:00.963Z,12.70
2023-05-14T04:47:27.770Z,12.80
2023-05-14T04:49:54.593Z,12.90
2023-05-14T04:52:21.484Z,12.90
2023-05-14T04:54:48.278Z,13.00
2023-05-14T04:57:15.174Z,13.00
2023-05-14T04:59:42.160Z,13.10
2023-05-14T05:02:09.011Z,13.10
2023-05-14T05:04:35.913Z,13.20
2023-05-14T05:07:02.714Z,13.20
2023-05-14T05:09:29.458Z,13.20
2023-05-14T05:11:56.339Z,13.30
2023-05-14T05:14:23.142Z,13.30
2023-05-14T05:16:51.105Z,13.30
2023-05-14T05:19:17.990Z,13.60
2023-05-14T05:21:45.619Z,13.70
2023-05-14T05:24:13.262Z,13.70
2023-05-14T05:26:40.172Z,13.90
2023-05-14T05:29:07.829Z,14.00
2023-05-14T05:31:34.766Z,14.10
2023-05-14T05:34:02.756Z,14.20
2023-05-14T05:36:29.557Z,14.30
2023-05-14T05:38:56.452Z,14.50
2023-05-14T05:41:23.334Z,14.60
2023-05-14T05:43:50.266Z,14.70
2023-05-14T05:46:17.160Z,14.50
2023-05-14T05:48:43.958Z,14.40
2023-05-14T05:51:11.381Z,14.40
2023-05-14T05:53:38.223Z,14.50
2023-05-14T05:56:06.284Z,14.50
2023-05-14T05:58:33.547Z,14.60
2023-05-14T06:01:01.214Z,14.50
2023-05-14T06:03:28.001Z,14.60
2023-05-14T06:05:54.780Z,14.60
2023-05-14T06:08:21.611Z,15.10
2023-05-14T06:10:48.447Z,15.30
2023-05-14T06:13:15.368Z,15.30
2023-05-14T06:15:42.221Z,15.10
2023-05-14T06:18:09.294Z,15.10
2023-05-14T06:20:36.285Z,15.20
2023-05-14T06:23:03.147Z,15.20
2023-05-14T06:25:30.009Z,15.30
2023-05-14T06:27:56.760Z,15.30
2023-05-14T06:30:23.783Z,15.30
2023-05-14T06:32:51.675Z,15.20
2023-05-14T06:35:19.231Z,15.50
2023-05-14T06:37:46.125Z,15.50
2023-05-14T06:40:15.733Z,15.40
2023-05-14T06:42:42.639Z,15.50
2023-05-14T06:45:10.106Z,15.40
2023-05-14T06:47:36.991Z,15.40
2023-05-14T06:50:04.245Z,15.20
2023-05-14T06:52:31.138Z,15.40
2023-05-14T06:54:58.045Z,15.40
2023-05-14T06:57:25.175Z,15.70
2023-05-14T06:59:52.151Z,16.10
2023-05-14T07:02:19.007Z,16.70
2023-05-14T07:04:46.525Z,17.00
2023-05-14T07:07:15.399Z,16.90
2023-05-14T07:09:42.656Z,17.10
2023-05-14T07:12:09.639Z,16.70
2023-05-14T07:14:36.450Z,17.00
2023-05-14T07:17:03.536Z,17.00
2023-05-14T07:19:30.502Z,17.10
2023-05-14T07:21:58.114Z,17.40
2023-05-14T07:24:25.001Z,17.10
2023-05-14T07:26:52.176Z,17.10
2023-05-14T07:29:19.021Z,17.10
2023-05-14T07:31:46.223Z,17.00
2023-05-14T07:34:13.069Z,16.90
2023-05-14T07:36:39.969Z,16.80
2023-05-14T07:39:06.922Z,16.90
2023-05-14T07:41:33.753Z,17.30
2023-05-14T07:44:00.648Z,18.00
2023-05-14T07:46:27.401Z,18.30
2023-05-14T07:48:54.277Z,18.40
2023-05-14T07:51:21.146Z,18.50
2023-05-14T07:53:47.996Z,19.00
2023-05-14T07:56:14.856Z,19.10
2023-05-14T07:58:41.656Z,19.10
2023-05-14T08:01:09.113Z,19.60
2023-05-14T08:03:35.991Z,19.50
2023-05-14T08:06:03.853Z,19.80
2023-05-14T08:08:30.893Z,20.00
2023-05-14T08:10:57.769Z,20.10
2023-05-14T08:13:24.653Z,19.80
2023-05-14T08:15:51.560Z,19.80
2023-05-14T08:18:18.395Z,19.90
2023-05-14T08:20:45.221Z,20.10
2023-05-14T08:23:12.669Z,20.00
2023-05-14T08:25:39.519Z,20.00
2023-05-14T08:28:07.897Z,19.90
2023-05-14T08:30:35.001Z,20.20
2023-05-14T08:33:01.880Z,20.40
2023-05-14T08:35:28.875Z,20.40
2023-05-14T08:37:57.014Z,20.00
2023-05-14T08:40:24.390Z,20.30
2023-05-14T08:42:52.892Z,20.70
2023-05-14T08:45:33.894Z,20.80
2023-05-14T08:48:05.623Z,20.30
2023-05-14T08:50:32.842Z,19.90
2023-05-14T08:52:59.626Z,20.00
2023-05-14T08:55:28.292Z,20.20
2023-05-14T08:57:56.088Z,20.50
2023-05-14T09:00:23.499Z,20.40
2023-05-14T09:02:51.933Z,20.20
2023-05-14T09:05:20.834Z,20.00
2023-05-14T09:07:47.909Z,20.10
2023-05-14T09:10:16.615Z,20.50
2023-05-14T09:12:43.524Z,20.50
2023-05-14T09:15:11.078Z,20.50
2023-05-14T09:17:37.972Z,20.60
2023-05-14T09:20:06.678Z,20.80
2023-05-14T09:22:35.024Z,20.80
2023-05-14T09:25:09.112Z,21.00
2023-05-14T09:27:37.198Z,21.20
2023-05-14T09:30:10.976Z,20.80
2023-05-14T09:32:48.241Z,20.90
2023-05-14T09:35:22.590Z,20.90
2023-05-14T09:37:54.809Z,20.80
2023-05-14T09:40:24.838Z,21.00
2023-05-14T09:42:52.132Z,21.20
2023-05-14T09:45:19.133Z,21.30
2023-05-14T09:47:46.468Z,21.20
2023-05-14T09:50:13.817Z,21.20
2023-05-14T09:52:40.786Z,21.20
2023-05-14T09:55:08.444Z,21.30
2023-05-14T09:57:35.655Z,21.30
2023-05-14T10:00:02.806Z,21.50
2023-05-14T10:02:38.862Z,21.60
2023-05-14T10:05:07.453Z,21.70
2023-05-14T10:07:57.620Z,21.70
2023-05-14T10:10:29.031Z,21.70
2023-05-14T10:13:08.771Z,21.90
2023-05-14T10:15:46.104Z,22.10
2023-05-14T10:18:19.703Z,22.00
2023-05-14T10:20:57.125Z,21.90
2023-05-14T10:23:24.188Z,22.00
2023-05-14T10:25:51.479Z,21.60
2023-05-14T10:28:18.791Z,22.00
2023-05-14T10:30:46.603Z,22.20
2023-05-14T10:33:16.572Z,22.30
2023-05-14T10:36:03.095Z,22.20
2023-05-14T10:38:33.833Z,22.60
2023-05-14T10:41:13.160Z,22.80
2023-05-14T10:43:42.139Z,22.60
2023-05-14T10:46:12.727Z,22.60
2023-05-14T10:48:43.096Z,22.60
2023-05-14T10:51:11.831Z,22.60
2023-05-14T10:53:41.892Z,22.70
2023-05-14T10:56:11.602Z,23.00
2023-05-14T10:58:42.209Z,22.80
2023-05-14T11:01:12.238Z,23.10
2023-05-14T11:03:45.183Z,23.00
2023-05-14T11:06:15.795Z,23.10
2023-05-14T11:08:43.842Z,23.00
2023-05-14T11:11:11.161Z,23.10
2023-05-14T11:13:38.634Z,23.10
2023-05-14T11:18:41.592Z,23.00
2023-05-14T11:21:08.681Z,23.30
2023-05-14T11:23:35.568Z,23.20
2023-05-14T11:26:02.500Z,23.10
2023-05-14T11:28:29.978Z,23.30
2023-05-14T11:30:56.811Z,23.30
2023-05-14T11:33:23.854Z,23.20
2023-05-14T11:35:50.691Z,23.20
2023-05-14T11:38:21.374Z,23.10
2023-05-14T11:40:59.605Z,23.10
2023-05-14T11:43:29.072Z,22.80
2023-05-14T11:45:56.820Z,22.50
2023-05-14T11:48:24.346Z,22.80
2023-05-14T11:50:53.183Z,22.90
2023-05-14T11:53:31.149Z,22.90
2023-05-14T11:55:58.176Z,23.10
2023-05-14T11:58:25.711Z,23.00
2023-05-14T12:00:55.160Z,22.70
2023-05-14T12:03:26.606Z,22.80
2023-05-14T12:06:08.120Z,23.10
2023-05-14T12:08:34.991Z,23.10
2023-05-14T12:11:02.091Z,23.30
2023-05-14T12:13:31.460Z,23.30
2023-05-14T12:16:02.184Z,23.20
2023-05-14T12:18:32.407Z,23.30
2023-05-14T12:21:04.443Z,23.30
2023-05-14T12:23:32.810Z,23.30
2023-05-14T12:26:06.372Z,23.30
2023-05-14T12:28:37.512Z,23.10
2023-05-14T12:31:05.427Z,23.10
2023-05-14T12:33:32.416Z,23.20
2023-05-14T12:36:10.045Z,23.30
2023-05-14T12:38:46.989Z,23.20
2023-05-14T12:41:13.871Z,23.30
2023-05-14T12:43:43.847Z,23.40
2023-05-14T12:46:11.127Z,23.30
2023-05-14T12:48:37.987Z,23.20
2023-05-14T12:51:04.803Z,23.40
2023-05-14T12:53:31.630Z,23.30
2023-05-14T12:55:58.505Z,23.30
2023-05-14T12:58:25.427Z,23.30
2023-05-14T13:00:52.375Z,23.40
2023-05-14T13:03:19.246Z,23.30
2023-05-14T13:05:46.061Z,23.40
2023-05-14T13:08:14.772Z,23.40
2023-05-14T13:10:41.604Z,23.30
2023-05-14T13:13:08.508Z,23.30
2023-05-14T13:15:36.296Z,23.30
2023-05-14T13:18:03.561Z,23.30
2023-05-14T13:20:31.076Z,23.30
2023-05-14T13:22:58.080Z,23.50
2023-05-14T13:25:25.029Z,23.50
2023-05-14T13:27:52.013Z,23.50
2023-05-14T13:30:19.881Z,23.60
2023-05-14T13:32:47.359Z,23.40
2023-05-14T13:35:14.684Z,23.40
2023-05-14T13:37:43.859Z,23.40
2023-05-14T13:40:11.556Z,23.40
2023-05-14T13:42:41.510Z,23.20
2023-05-14T13:45:09.347Z,23.30
2023-05-14T13:47:36.208Z,23.30
2023-05-14T13:50:03.440Z,23.40
2023-05-14T13:52:30.433Z,23.40
2023-05-14T13:54:57.272Z,23.20
2023-05-14T13:57:24.200Z,23.10
2023-05-14T13:59:51.126Z,23.30
2023-05-14T14:02:18.020Z,23.00
2023-05-14T14:04:44.840Z,23.20
2023-05-14T14:07:11.614Z,23.30
2023-05-14T14:09:38.482Z,23.30
2023-05-14T14:12:06.238Z,23.20
2023-05-14T14:14:33.132Z,23.40
2023-05-14T14:16:59.940Z,23.30
2023-05-14T14:19:26.758Z,23.20
2023-05-14T14:21:53.759Z,23.10
2023-05-14T14:24:20.585Z,22.90
2023-05-14T14:26:47.373Z,23.10
2023-05-14T14:29:14.258Z,23.00
2023-05-14T14:31:41.107Z,23.10
2023-05-14T14:34:07.956Z,22.90
2023-05-14T14:36:34.745Z,23.10
2023-05-14T14:39:01.529Z,23.00
2023-05-14T14:41:28.405Z,22.90
2023-05-14T14:43:55.261Z,23.00
2023-05-14T14:46:22.224Z,23.10
2023-05-14T14:48:49.245Z,23.00
2023-05-14T14:51:16.098Z,22.90
2023-05-14T14:53:43.104Z,22.90
2023-05-14T14:56:09.941Z,22.70
2023-05-14T14:58:36.970Z,22.60
2023-05-14T15:01:04.208Z,22.70
2023-05-14T15:03:31.453Z,22.80
2023-05-14T15:05:58.879Z,22.70
2023-05-14T15:08:27.975Z,22.80
2023-05-14T15:10:59.310Z,22.50
2023-05-14T15:13:26.957Z,22.60
2023-05-14T15:15:53.769Z,22.60
2023-05-14T15:18:20.849Z,22.50
2023-05-14T15:20:47.910Z,22.60
2023-05-14T15:23:14.781Z,22.40
2023-05-14T15:25:41.581Z,22.50
2023-05-14T15:28:08.516Z,22.40
2023-05-14T15:30:35.518Z,22.50
2023-05-14T15:33:02.548Z,22.50
2023-05-14T15:35:29.484Z,22.40
2023-05-14T15:37:59.478Z,22.50
2023-05-14T15:40:27.647Z,22.50
2023-05-14T15:42:54.683Z,22.50
2023-05-14T15:45:21.765Z,22.30
2023-05-14T15:47:48.689Z,22.10
2023-05-14T15:50:15.508Z,22.20
2023-05-14T15:52:42.445Z,22.20
2023-05-14T15:55:10.229Z,22.10
2023-05-14T15:57:37.371Z,22.10
2023-05-14T16:00:10.976Z,22.10
2023-05-14T16:02:39.677Z,22.00
2023-05-14T16:05:08.557Z,21.70
2023-05-14T16:07:36.183Z,21.80
2023-05-14T16:10:03.478Z,21.80
2023-05-14T16:12:30.479Z,21.80
2023-05-14T16:14:57.647Z,21.90
2023-05-14T16:17:24.776Z,22.00
2023-05-14T16:19:52.874Z,22.00
2023-05-14T16:22:21.559Z,22.00
2023-05-14T16:24:48.408Z,22.50
2023-05-14T16:27:15.551Z,21.90
2023-05-14T16:29:42.482Z,22.00
2023-05-14T16:32:09.316Z,22.00
2023-05-14T16:34:36.193Z,21.90
2023-05-14T16:37:03.248Z,21.90
2023-05-14T16:39:30.171Z,21.80
2023-05-14T16:41:56.910Z,21.80
2023-05-14T16:44:23.797Z,21.90
2023-05-14T16:46:51.180Z,22.00
2023-05-14T16:49:22.160Z,21.70
2023-05-14T16:51:49.196Z,21.60
2023-05-14T16:54:16.127Z,21.30
2023-05-14T16:56:47.779Z,21.50
2023-05-14T16:59:15.463Z,21.10
2023-05-14T17:01:43.647Z,21.20
2023-05-14T17:04:10.907Z,21.30
2023-05-14T17:06:37.980Z,21.20
2023-05-14T17:09:05.159Z,20.50
2023-05-14T17:11:31.912Z,20.40
2023-05-14T17:13:58.701Z,20.30
2023-05-14T17:16:25.975Z,20.30
2023-05-14T17:18:52.979Z,20.10
2023-05-14T17:21:19.848Z,20.10
2023-05-14T17:23:46.662Z,20.40
2023-05-14T17:26:13.576Z,20.30
2023-05-14T17:28:40.474Z,20.10
2023-05-14T17:31:07.576Z,20.00
2023-05-14T17:33:34.539Z,19.90
2023-05-14T17:36:01.661Z,19.90
2023-05-14T17:38:28.519Z,19.80
2023-05-14T17:40:55.589Z,19.90
2023-05-14T17:43:22.490Z,19.50
2023-05-14T17:45:54.341Z,19.40
2023-05-14T17:48:23.139Z,19.40
2023-05-14T17:50:51.633Z,19.30
2023-05-14T17:53:18.562Z,19.40
2023-05-14T17:55:45.474Z,19.10
2023-05-14T17:58:15.168Z,19.40
2023-05-14T18:00:43.265Z,19.20
2023-05-14T18:03:10.523Z,19.20
2023-05-14T18:05:37.624Z,19.10
2023-05-14T18:08:04.834Z,18.90
2023-05-14T18:10:31.940Z,18.70
2023-05-14T18:12:58.952Z,18.90
2023-05-14T18:15:27.142Z,18.60
2023-05-14T18:17:54.339Z,18.60
2023-05-14T18:20:21.315Z,18.30
2023-05-14T18:22:48.315Z,18.20
2023-05-14T18:25:15.606Z,18.10
2023-05-14T18:27:45.690Z,18.30
2023-05-14T18:30:14.821Z,18.20
2023-05-14T18:32:43.961Z,18.00
2023-05-14T18:35:12.541Z,17.90
2023-05-14T18:37:39.793Z,18.00
2023-05-14T18:40:07.742Z,17.90
2023-05-14T18:42:35.279Z,17.60
2023-05-14T18:45:02.659Z,17.90
2023-05-14T18:47:29.758Z,17.60
2023-05-14T18:49:58.900Z,17.60
2023-05-14T18:52:26.602Z,17.60
2023-05-14T18:54:54.768Z,17.40
2023-05-14T18:57:22.391Z,17.40
2023-05-14T18:59:49.378Z,17.20
2023-05-14T19:02:16.245Z,17.10
2023-05-14T19:04:52.343Z,17.10
2023-05-14T19:07:23.491Z,17.00
2023-05-14T19:09:50.468Z,16.90
2023-05-14T19:12:17.285Z,16.80
2023-05-14T19:14:44.193Z,16.90
2023-05-14T19:17:11.202Z,16.90
2023-05-14T19:19:39.231Z,16.80
2023-05-14T19:22:06.689Z,16.70
2023-05-14T19:24:33.716Z,16.60
2023-05-14T19:27:00.853Z,16.50
2023-05-14T19:29:27.638Z,16.50
2023-05-14T19:31:54.552Z,16.60
2023-05-14T19:34:21.466Z,16.60
2023-05-14T19:36:48.284Z,16.50
2023-05-14T19:39:15.077Z,16.40
2023-05-14T19:41:42.006Z,16.20
2023-05-14T19:44:08.779Z,16.20
2023-05-14T19:46:35.671Z,16.20
2023-05-14T19:49:02.541Z,16.10
2023-05-14T19:51:29.347Z,16.10
2023-05-14T19:53:56.213Z,15.90
2023-05-14T19:56:24.669Z,15.90
2023-05-14T19:58:52.515Z,15.90
2023-05-14T20:01:20.899Z,15.80
2023-05-14T20:03:48.473Z,15.80
2023-05-14T20:06:15.602Z,15.70
2023-05-14T20:08:42.522Z,15.70
2023-05-14T20:11:09.269Z,15.70
2023-05-14T20:13:36.410Z,15.70
2023-05-14T20:16:03.445Z,15.60
2023-05-14T20:18:30.367Z,15.50
2023-05-14T20:20:57.228Z,15.40
2023-05-14T20:23:24.154Z,15.40
2023-05-14T20:25:51.447Z,15.40
2023-05-14T20:28:18.254Z,15.30
2023-05-14T20:30:45.076Z,15.30
2023-05-14T20:33:13.279Z,15.20
2023-05-14T20:35:43.648Z,15.10
2023-05-14T20:38:12.548Z,15.10
2023-05-14T20:40:39.881Z,15.10
2023-05-14T20:43:06.668Z,15.10
2023-05-14T20:45:33.534Z,15.10
2023-05-14T20:48:00.442Z,15.00
2023-05-14T20:50:27.825Z,15.00
2023-05-14T20:52:55.690Z,14.90
2023-05-14T20:55:23.031Z,15.00
2023-05-14T20:57:50.444Z,14.90
2023-05-14T21:00:17.817Z,15.00
2023-05-14T21:02:44.922Z,14.90
2023-05-14T21:05:13.625Z,14.80
2023-05-14T21:07:40.512Z,14.80
2023-05-14T21:10:09.404Z,14.70
2023-05-14T21:12:36.299Z,14.70
2023-05-14T21:15:03.284Z,14.60
2023-05-14T21:17:30.630Z,14.50
2023-05-14T21:19:57.717Z,14.60
2023-05-14T21:22:24.721Z,14.50
2023-05-14T21:24:51.503Z,14.50
2023-05-14T21:27:18.483Z,14.50
2023-05-14T21:29:46.328Z,14.30
2023-05-14T21:32:13.191Z,14.30
2023-05-14T21:34:40.062Z,14.20
2023-05-14T21:37:07.165Z,14.30
2023-05-14T21:39:34.097Z,14.30
2023-05-14T21:42:00.836Z,14.20
2023-05-14T21:44:27.654Z,14.30
2023-05-14T21:46:54.557Z,14.20
2023-05-14T21:49:21.392Z,14.20
2023-05-14T21:51:52.798Z,14.10
2023-05-14T21:54:19.738Z,14.20
2023-05-14T21:56:46.844Z,14.20
2023-05-14T21:59:13.667Z,14.20
2023-05-14T22:02:00.640Z,14.10
2023-05-14T22:04:27.357Z,14.10
2023-05-14T22:06:54.153Z,14.00
2023-05-14T22:09:20.958Z,14.00
2023-05-14T22:11:47.741Z,14.00
2023-05-14T22:14:14.550Z,14.00
2023-05-14T22:16:41.409Z,14.00
2023-05-14T22:19:08.276Z,14.00
2023-05-14T22:21:35.091Z,13.90
2023-05-14T22:24:01.990Z,14.00
2023-05-14T22:26:28.968Z,13.90
2023-05-14T22:28:57.502Z,14.00
2023-05-14T22:31:24.428Z,13.90
2023-05-14T22:33:51.325Z,13.90
2023-05-14T22:36:18.055Z,13.80
2023-05-14T22:38:44.797Z,13.80
2023-05-14T22:41:12.225Z,13.90
2023-05-14T22:43:38.996Z,13.80
2023-05-14T22:46:06.111Z,13.80
2023-05-14T22:48:32.874Z,13.80
2023-05-14T22:50:59.684Z,13.80
2023-05-14T22:53:26.538Z,13.70
2023-05-14T22:55:53.582Z,13.80
2023-05-14T22:58:20.414Z,13.80
2023-05-14T23:00:47.228Z,13.70
2023-05-14T23:03:14.027Z,13.80
2023-05-14T23:05:40.919Z,13.80
2023-05-14T23:08:07.836Z,13.70
2023-05-14T23:10:37.458Z,13.70
2023-05-14T23:13:04.611Z,13.70
2023-05-14T23:15:32.593Z,13.70
2023-05-14T23:17:59.911Z,13.70
2023-05-14T23:20:26.796Z,13.70
2023-05-14T23:22:53.986Z,13.60
2023-05-14T23:25:20.799Z,13.60
2023-05-14T23:27:48.024Z,13.70
2023-05-14T23:30:14.843Z,13.60
2023-05-14T23:32:41.771Z,13.60
2023-05-14T23:35:09.251Z,13.60
2023-05-14T23:37:41.567Z,13.60
2023-05-14T23:40:09.572Z,13.60
2023-05-14T23:42:36.375Z,13.60
2023-05-14T23:45:03.655Z,13.60
2023-05-14T23:47:30.751Z,13.60
2023-05-14T23:49:57.581Z,13.50
2023-05-14T23:52:24.459Z,13.60
2023-05-14T23:54:51.264Z,13.60
2023-05-14T23:57:18.229Z,13.60
2023-05-14T23:59:45.014Z,13.60
